Virginia Beach, VA

5:16 PM EST on January 22, 2017 (GMT -0500)
Shadowlawn | | Change Station

Elev 23 ft 36.83 °N, 75.98 °W | Updated 4 seconds ago

Overcast
Overcast
49.0 °F
Feels Like 48 °F
N
4.2
Wind Variable Wind from NE
Gusts 10.0 mph

Today
High -- | Low -- °F
--% Chance of Precip.
Yesterday
High -- | Low -- °F
Precip. -- in
Pressure 29.58 in
Visibility 3.0 miles
Clouds Overcast 400 ft
Windchill 48 °F
Dew Point 49 °F
Humidity 100%
Rainfall 0.00 in
Snow Depth Not available.
7:12 AM 5:18 PM
Waning Crescent, 23% visible
METAR KNTU 222156Z 36008KT 3SM BR OVC004 09/08 A2957 RMK AO2 SLP015 T00890078 $
Pressure 29.58 in
Visibility 3.0 miles
Clouds Overcast 400 ft
Windchill 48 °F
Dew Point 49 °F
Humidity 100%
Rainfall 0.00 in
Snow Depth Not available.
7:12 AM 5:18 PM
Waning Crescent, 23% visible
METAR KNTU 222156Z 36008KT 3SM BR OVC004 09/08 A2957 RMK AO2 SLP015 T00890078 $

Get Your Daily Forecast Email!

Thanks for signing up!

Be on the lookout for a verification email in your inbox.

You'll start receiving the daily forecast at 8 AM.

×

10-Day Weather Forecast

Almanac

Astronomy

Jan. 22, 2017 Rise Set
Actual Time
Civil Twilight
Nautical Twilight
Astronomical Twilight
Moon
Length of Visible Light
Length of Day
Tomorrow will be .
, % of the Moon is Illuminated

Today's Extremes

State Highs State Lows

Community

WunderPhotos

Upload Photos

1,962,540 photos uploaded!

WunderBlog® & News

Nearby

Air Quality

  Air Quality AQ Index Pollutant
Not available.

Snow Depth

Station Depth Elevation

Earthquake Activity

City Distance Mag. Time & Date
Minimum magnitude displayed is 2.5.

Coastal Water Temperatures

Place Temperature

Stations

Nearby Weather Stations

Station Location Temp. Windchill Dew Point Humidity Wind Precip. Elev Updated Type
                   

Watches & Warnings

Marine Fog Advisory, Small Craft Advisory
Issued: 3:21 PM EST Jan. 22, 2017 – National Weather Service

... Dense fog advisory remains in effect until 4 am EST Monday...
... Small Craft Advisory now in effect from 1 am Monday to 6 PM
EST Tuesday...

* winds... east 15 to 25 knots with gusts up to 30 knots.

* Seas... 5 to 7 feet.

* Visibility... areas of fog reducing visibility to near zero at
times.

Precautionary/preparedness actions...

A Small Craft Advisory means wind speeds of 25 to 33 knots and/or
seas of 5 feet or greater over the coastal waters are expected to
produce hazardous boating conditions to small craft.
Inexperienced mariners... especially those operating smaller
vessels... should avoid navigating in these conditions.

Mariners should pay close attention to the marine forecast... and
consider wind and sea conditions in planning.

A dense fog advisory means visibilities will frequently be
reduced to less than one mile. Inexperienced mariners...
especially those operating smaller vessels should avoid
navigating in these conditions.